Time;durP1;ratioP1;P1;durP2;ratioP2;P2;SDS_P1;SDS_P2;PMS_P1;PMS_P2;Temp;Humidity;BMP_temperature;BMP_pressure;BME280_temperature;BME280_humidity;BME280_pressure;Samples;Min_cycle;Max_cycle;Signal;HPM_P1;HPM_P2
2020/12/18 00:02:37;;;;;;;58.88;46.78;;;;;;;8.77;96.07;101720.00;5013547;28;20137;-82
2020/12/18 00:05:42;;;;;;;56.10;46.10;;;;;;;8.76;95.85;101721.84;5013573;28;20484;-82
2020/12/18 00:08:48;;;;;;;57.20;45.35;;;;;;;8.72;96.02;101717.59;4992956;28;20114;-84
2020/12/18 00:11:54;;;;;;;50.90;43.70;;;;;;;8.67;96.01;101718.81;4993614;28;20053;-82
2020/12/18 00:14:58;;;;;;;51.40;43.67;;;;;;;8.64;95.94;101711.00;5008114;28;20373;-81
2020/12/18 00:18:02;;;;;;;52.03;42.80;;;;;;;8.66;95.70;101714.44;5012902;28;20049;-81
2020/12/18 00:21:06;;;;;;;49.78;41.47;;;;;;;8.70;96.33;101721.31;5013386;28;20117;-85
2020/12/18 00:24:10;;;;;;;48.42;41.58;;;;;;;8.71;96.18;101715.91;5013161;28;20057;-81
2020/12/18 00:27:14;;;;;;;49.40;42.38;;;;;;;8.66;95.75;101723.34;5013981;28;20053;-80
2020/12/18 00:30:19;;;;;;;53.15;42.97;;;;;;;8.56;95.91;101723.94;5012545;28;20049;-84
2020/12/18 00:33:24;;;;;;;50.13;41.72;;;;;;;8.51;95.87;101721.53;5013766;28;20061;-80
2020/12/18 00:36:28;;;;;;;48.15;42.15;;;;;;;8.48;95.99;101725.25;5011659;28;20516;-81
2020/12/18 00:39:33;;;;;;;48.30;40.03;;;;;;;8.54;96.32;101726.72;5013719;28;20073;-81
2020/12/18 00:42:37;;;;;;;48.75;40.00;;;;;;;8.57;96.35;101737.22;5013677;28;20057;-80
2020/12/18 00:45:43;;;;;;;49.92;41.67;;;;;;;8.60;96.22;101730.84;4994126;28;20050;-82
2020/12/18 00:48:48;;;;;;;53.35;43.33;;;;;;;8.57;95.97;101729.19;4994064;28;20046;-83
2020/12/18 00:51:53;;;;;;;50.03;44.53;;;;;;;8.56;96.38;101731.97;4993171;28;20069;-82
2020/12/18 00:54:58;;;;;;;50.65;42.10;;;;;;;8.52;96.23;101742.84;4999525;28;20409;-83
2020/12/18 00:58:04;;;;;;;56.38;43.85;;;;;;;8.47;96.30;101736.03;5008791;28;20049;-83
2020/12/18 01:01:08;;;;;;;51.50;43.25;;;;;;;8.49;96.07;101736.81;4981814;28;20057;-83
2020/12/18 01:04:12;;;;;;;54.95;44.40;;;;;;;8.50;96.55;101741.22;5001600;28;20045;-85
2020/12/18 01:07:18;;;;;;;47.10;41.03;;;;;;;8.50;96.16;101744.75;5012595;28;20049;-82
2020/12/18 01:10:23;;;;;;;52.28;42.65;;;;;;;8.50;96.46;101744.75;5012831;28;20068;-80
2020/12/18 01:13:28;;;;;;;49.00;42.13;;;;;;;8.53;96.49;101743.72;5012329;28;20389;-85
2020/12/18 01:16:33;;;;;;;48.78;40.50;;;;;;;8.53;96.08;101754.41;5011337;28;20069;-82
2020/12/18 01:19:38;;;;;;;49.45;41.05;;;;;;;8.55;95.98;101748.97;5012453;28;20053;-85
2020/12/18 01:22:43;;;;;;;51.63;40.53;;;;;;;8.50;96.50;101744.75;5001202;28;20061;-82
2020/12/18 01:25:48;;;;;;;45.83;40.95;;;;;;;8.48;96.56;101757.38;4996544;28;20045;-85
2020/12/18 01:28:52;;;;;;;45.83;38.40;;;;;;;8.52;96.28;101761.59;5001272;28;20405;-85
2020/12/18 01:31:57;;;;;;;44.13;39.03;;;;;;;8.55;95.95;101754.31;5016043;28;20045;-82
2020/12/18 01:35:02;;;;;;;45.10;38.67;;;;;;;8.55;96.31;101759.69;5015988;28;20484;-81
2020/12/18 01:38:07;;;;;;;44.75;39.25;;;;;;;8.57;95.87;101761.31;5005734;28;20061;-82
2020/12/18 01:41:14;;;;;;;44.95;39.33;;;;;;;8.59;96.10;101766.59;5015750;28;20049;-84
2020/12/18 01:44:19;;;;;;;43.75;39.00;;;;;;;8.58;96.27;101763.06;5015506;28;20065;-85
2020/12/18 01:47:30;;;;;;;43.55;38.70;;;;;;;8.59;96.51;101763.94;4996905;28;20366;-81
2020/12/18 01:50:40;;;;;;;46.70;40.25;;;;;;;8.52;96.05;101770.59;4996126;28;20062;-82
2020/12/18 01:53:46;;;;;;;46.00;40.97;;;;;;;8.55;96.25;101767.69;4996063;28;20491;-81
2020/12/18 01:56:58;;;;;;;47.35;40.05;;;;;;;8.57;96.55;101773.84;4995918;28;20073;-82
2020/12/18 02:00:08;;;;;;;48.17;39.50;;;;;;;8.60;96.53;101774.53;5015104;28;20049;-81
2020/12/18 02:03:23;;;;;;;47.17;40.40;;;;;;;8.59;96.01;101770.16;5015177;28;20065;-81
2020/12/18 02:06:46;;;;;;;48.83;42.10;;;;;;;8.58;96.58;101771.09;5014798;28;20056;-82
2020/12/18 02:09:56;;;;;;;50.33;40.50;;;;;;;8.57;96.08;101771.19;5015294;28;20096;-85
2020/12/18 02:13:04;;;;;;;45.90;40.85;;;;;;;8.61;96.34;101770.91;5015120;28;20052;-84
2020/12/18 02:16:09;;;;;;;53.03;43.25;;;;;;;8.58;96.29;101775.56;5014063;28;20045;-85
2020/12/18 02:19:19;;;;;;;49.97;42.45;;;;;;;8.55;96.61;101770.38;5005462;28;20533;-80
2020/12/18 02:22:25;;;;;;;50.25;42.80;;;;;;;8.57;96.17;101771.19;4995042;28;20073;-81
2020/12/18 02:25:38;;;;;;;57.63;42.80;;;;;;;8.59;96.25;101771.94;4995349;28;20049;-82
2020/12/18 02:28:47;;;;;;;48.70;42.78;;;;;;;8.59;96.13;101769.28;4995205;28;20057;-83
2020/12/18 02:31:55;;;;;;;49.20;39.83;;;;;;;8.59;96.38;101762.13;4994596;28;20049;-82
2020/12/18 02:35:07;;;;;;;48.72;39.95;;;;;;;8.58;96.76;101760.38;4995349;28;20045;-81
2020/12/18 02:38:15;;;;;;;52.30;42.40;;;;;;;8.56;95.99;101761.41;5013310;28;20504;-86
2020/12/18 02:41:22;;;;;;;53.47;42.10;;;;;;;8.54;96.69;101760.66;4995148;28;20049;-82
2020/12/18 02:44:53;;;;;;;50.28;42.20;;;;;;;8.50;96.43;101750.09;4995140;28;20046;-81
2020/12/18 02:48:17;;;;;;;49.97;42.97;;;;;;;8.50;96.88;101759.94;4995616;28;20389;-85
2020/12/18 02:51:30;;;;;;;;;;;;;;;8.45;96.44;101768.22;4995013;28;20049;-82
2020/12/18 02:55:13;;;;;;;48.78;39.58;;;;;;;8.52;96.64;101757.19;4935360;29;19926;-84
2020/12/18 02:58:38;;;;;;;46.45;39.92;;;;;;;8.57;96.69;101763.16;4948959;29;20575;-84
2020/12/18 03:01:42;;;;;;;46.95;40.83;;;;;;;8.52;96.26;101756.22;4935757;29;20051;-82
2020/12/18 03:04:47;;;;;;;54.60;43.83;;;;;;;8.41;96.41;101761.34;4932285;29;20070;-81
2020/12/18 03:08:17;;;;;;;52.35;42.42;;;;;;;8.43;97.00;101762.13;4954682;29;20054;-82
2020/12/18 03:11:22;;;;;;;50.90;43.38;;;;;;;8.43;96.81;101767.47;4943594;29;20515;-86
2020/12/18 03:14:29;;;;;;;52.15;43.33;;;;;;;8.44;96.60;101761.16;4943362;29;20136;-82
2020/12/18 03:17:41;;;;;;;51.53;43.30;;;;;;;8.48;96.61;101767.19;4954588;29;20458;-82
2020/12/18 03:20:48;;;;;;;56.78;46.45;;;;;;;8.44;96.99;101763.81;4953595;29;20051;-82
2020/12/18 03:24:11;;;;;;;52.90;45.75;;;;;;;8.41;96.80;101772.03;4954040;29;20110;-86
2020/12/18 03:27:48;;;;;;;54.58;44.15;;;;;;;8.33;96.85;101770.72;4935391;29;20199;-81
2020/12/18 03:30:53;;;;;;;59.47;45.60;;;;;;;8.33;96.94;101762.72;4935381;29;20435;-82
2020/12/18 03:33:59;;;;;;;56.45;46.88;;;;;;;8.25;97.52;101767.59;4935373;29;20051;-85
2020/12/18 03:37:26;;;;;;;61.72;51.20;;;;;;;8.27;97.37;101763.06;4937001;29;20059;-85
2020/12/18 03:40:35;;;;;;;63.63;50.80;;;;;;;8.24;97.61;101764.06;4935184;29;20055;-84
2020/12/18 03:43:51;;;;;;;65.55;51.30;;;;;;;8.27;97.68;101761.22;4923117;29;20143;-82
2020/12/18 03:46:57;;;;;;;64.82;51.20;;;;;;;8.26;98.22;101756.84;4930654;29;20139;-82
2020/12/18 03:50:24;;;;;;;67.20;51.33;;;;;;;8.28;97.88;101767.44;4937088;29;20553;-80
2020/12/18 03:53:33;;;;;;;62.08;51.03;;;;;;;8.31;98.01;101761.94;4917162;29;20079;-81
2020/12/18 03:56:50;;;;;;;65.57;50.13;;;;;;;8.34;98.02;101756.41;4905125;29;20059;-85
2020/12/18 04:00:16;;;;;;;65.28;52.53;;;;;;;8.34;97.73;101757.28;4915868;29;20067;-81
2020/12/18 04:03:36;;;;;;;65.97;52.42;;;;;;;8.30;98.08;101755.72;4985767;28;20551;-81
2020/12/18 04:06:45;;;;;;;62.75;52.22;;;;;;;8.36;98.11;101750.03;5011089;28;20048;-81
2020/12/18 04:09:50;;;;;;;66.18;54.28;;;;;;;8.32;97.89;101761.84;5013434;28;20053;-83
2020/12/18 04:13:02;;;;;;;65.30;53.75;;;;;;;8.33;97.65;101747.53;5013335;28;20484;-82
2020/12/18 04:16:06;;;;;;;68.65;54.63;;;;;;;8.33;97.84;101750.19;5013062;28;20049;-81
2020/12/18 04:19:10;;;;;;;73.10;56.90;;;;;;;8.27;97.64;101750.53;5013097;28;20167;-85
2020/12/18 04:22:15;;;;;;;71.78;58.85;;;;;;;8.29;97.49;101758.50;5013840;28;20420;-83
2020/12/18 04:25:37;;;;;;;76.03;59.25;;;;;;;8.26;97.62;101758.63;5012534;28;20053;-83
2020/12/18 04:28:41;;;;;;;73.75;59.38;;;;;;;8.30;97.49;101761.06;5013170;28;20057;-85
2020/12/18 04:31:47;;;;;;;74.57;58.67;;;;;;;8.32;97.98;101761.00;5001779;28;20045;-82
2020/12/18 04:34:52;;;;;;;71.65;57.03;;;;;;;8.30;97.32;101750.38;5001838;28;20057;-82
2020/12/18 04:38:12;;;;;;;72.72;58.58;;;;;;;8.33;97.59;101754.69;5013149;28;20049;-84
2020/12/18 04:41:46;;;;;;;84.20;63.92;;;;;;;8.27;97.83;101752.38;4992278;28;20134;-84
2020/12/18 04:44:55;;;;;;;74.65;61.00;;;;;;;8.33;97.54;101765.38;4988833;28;20046;-85
2020/12/18 04:48:01;;;;;;;75.10;60.15;;;;;;;8.35;97.62;101769.69;4967178;28;20145;-82
2020/12/18 04:51:17;;;;;;;77.95;61.67;;;;;;;8.36;97.20;101770.56;4942497;29;20051;-85
2020/12/18 04:54:28;;;;;;;76.45;60.05;;;;;;;8.39;97.31;101759.69;4953769;28;20063;-83
2020/12/18 04:57:43;;;;;;;79.83;62.63;;;;;;;8.39;97.22;101765.88;4957352;29;20442;-82
2020/12/18 05:00:56;;;;;;;79.13;61.88;;;;;;;8.40;97.36;101767.63;4957220;29;20136;-85
2020/12/18 05:04:21;;;;;;;78.63;62.38;;;;;;;8.39;97.59;101771.25;4957125;29;20046;-82
2020/12/18 05:07:40;;;;;;;75.63;62.10;;;;;;;8.41;97.00;101773.84;4978175;28;20138;-84
2020/12/18 05:10:45;;;;;;;76.55;61.58;;;;;;;8.34;97.42;101780.50;4946023;29;20538;-82
2020/12/18 05:14:11;;;;;;;78.28;63.13;;;;;;;8.34;96.95;101776.03;4957078;29;20078;-82
2020/12/18 05:17:29;;;;;;;76.50;62.67;;;;;;;8.34;97.50;101778.69;4974377;28;20480;-85
2020/12/18 05:20:34;;;;;;;78.20;62.08;;;;;;;8.37;97.19;101781.16;4984781;28;20054;-81
2020/12/18 05:24:01;;;;;;;80.20;61.40;;;;;;;8.38;97.35;101784.72;4985467;28;20054;-83
2020/12/18 05:27:11;;;;;;;78.85;61.75;;;;;;;8.40;97.20;101791.72;4997057;28;20072;-82
2020/12/18 05:30:22;;;;;;;76.43;62.63;;;;;;;8.33;96.90;101784.97;5011579;28;20152;-84
2020/12/18 05:33:47;;;;;;;76.68;61.25;;;;;;;8.37;96.93;101791.88;5017018;28;20397;-81
2020/12/18 05:37:04;;;;;;;83.45;64.45;;;;;;;8.33;97.45;101794.81;5011275;28;20045;-82
2020/12/18 05:40:32;;;;;;;81.03;61.03;;;;;;;8.30;97.43;101801.19;5015926;28;20512;-81
2020/12/18 05:43:55;;;;;;;88.93;65.53;;;;;;;8.19;97.49;101803.56;5015479;28;20053;-82
2020/12/18 05:47:18;;;;;;;85.63;65.13;;;;;;;8.12;97.37;101794.13;5016581;28;20057;-82
2020/12/18 05:50:34;;;;;;;85.65;66.00;;;;;;;8.12;97.62;101788.78;5014980;28;20052;-82
2020/12/18 05:53:39;;;;;;;89.38;64.90;;;;;;;8.15;97.92;101798.44;5003621;28;20516;-80
2020/12/18 05:56:56;;;;;;;88.25;67.07;;;;;;;8.11;97.47;101795.09;5015542;28;20065;-83
2020/12/18 06:00:03;;;;;;;86.80;65.10;;;;;;;8.06;98.01;101791.81;5015541;28;20057;-82
2020/12/18 06:03:36;;;;;;;131.95;98.72;;;;;;;8.06;98.22;101802.50;5016326;28;20049;-82
2020/12/18 06:06:47;;;;;;;205.65;148.45;;;;;;;8.14;98.28;101797.63;5014277;28;20050;-82
2020/12/18 06:09:58;;;;;;;129.55;97.35;;;;;;;8.17;98.46;101797.41;5015670;28;20073;-85
2020/12/18 06:13:11;;;;;;;94.28;69.65;;;;;;;8.15;98.66;101799.31;5014823;28;20042;-82
2020/12/18 06:16:31;;;;;;;90.90;67.68;;;;;;;8.20;98.20;101797.25;5015398;28;20049;-82
2020/12/18 06:19:47;;;;;;;89.13;68.82;;;;;;;8.18;98.46;101796.50;5014928;28;20057;-81
2020/12/18 06:23:03;;;;;;;87.45;66.40;;;;;;;8.22;98.66;101806.06;4995898;28;20054;-84
2020/12/18 06:26:53;;;;;;;84.68;65.57;;;;;;;8.23;98.23;101804.25;4993958;28;20045;-86
2020/12/18 06:30:17;;;;;;;85.85;65.55;;;;;;;8.20;98.30;101805.28;4980618;28;20454;-82
2020/12/18 06:33:54;;;;;;;85.30;64.63;;;;;;;8.19;98.54;101802.72;4975072;28;20454;-82
2020/12/18 06:37:35;;;;;;;81.20;62.90;;;;;;;8.19;98.46;101806.25;4963167;28;20054;-82
2020/12/18 06:40:56;;;;;;;85.18;64.47;;;;;;;8.19;98.26;101810.72;4955489;29;20446;-82
2020/12/18 06:44:35;;;;;;;83.80;61.88;;;;;;;8.21;98.84;101809.69;4944720;29;20051;-81
2020/12/18 06:48:26;;;;;;;86.13;64.03;;;;;;;8.21;98.17;101811.50;4941892;29;20051;-82
2020/12/18 06:51:49;;;;;;;91.80;68.78;;;;;;;8.23;98.21;101805.13;4955457;29;20047;-85
2020/12/18 06:55:07;;;;;;;86.72;64.38;;;;;;;8.28;98.12;101810.25;4955207;29;20043;-82
2020/12/18 06:58:34;;;;;;;83.20;63.63;;;;;;;8.27;98.27;101813.91;4985645;28;20138;-83
2020/12/18 07:01:38;;;;;;;80.47;61.33;;;;;;;8.17;97.73;101813.47;5005750;28;20045;-81
2020/12/18 07:04:42;;;;;;;85.80;63.33;;;;;;;8.15;98.10;101809.16;5014589;28;20053;-86
2020/12/18 07:07:49;;;;;;;84.00;63.15;;;;;;;8.17;98.06;101809.97;5015266;28;20056;-79
2020/12/18 07:11:00;;;;;;;82.00;60.60;;;;;;;8.16;97.85;101811.75;5003578;28;20488;-81
2020/12/18 07:14:14;;;;;;;84.18;60.97;;;;;;;8.18;98.11;101814.34;5014504;28;20054;-83
2020/12/18 07:17:21;;;;;;;84.40;60.78;;;;;;;8.16;98.28;101821.59;4991857;28;20401;-81
2020/12/18 07:20:27;;;;;;;81.82;61.72;;;;;;;8.15;98.31;101819.84;5013761;28;20393;-87
2020/12/18 07:23:34;;;;;;;86.95;61.65;;;;;;;8.17;98.11;101821.50;5014222;28;20389;-76
2020/12/18 07:26:38;;;;;;;86.32;63.13;;;;;;;8.11;98.31;101821.84;5008374;28;20421;-76
2020/12/18 07:29:43;;;;;;;93.55;65.78;;;;;;;8.06;98.55;101815.88;5014014;28;20073;-76
2020/12/18 07:32:50;;;;;;;95.38;66.35;;;;;;;8.04;98.23;101812.44;5014243;28;20053;-76
2020/12/18 07:35:56;;;;;;;92.30;64.18;;;;;;;8.07;98.67;101814.94;5013630;28;20056;-76
2020/12/18 07:39:01;;;;;;;91.57;64.82;;;;;;;8.13;98.42;101809.25;4994847;28;20057;-75
2020/12/18 07:42:06;;;;;;;88.93;64.13;;;;;;;8.13;98.55;101811.06;5012758;28;20049;-84
2020/12/18 07:45:11;;;;;;;79.35;60.85;;;;;;;8.19;98.84;101808.94;5012989;28;20065;-82
2020/12/18 07:48:18;;;;;;;80.72;60.80;;;;;;;8.30;98.30;101814.56;5013994;28;20508;-83
2020/12/18 07:51:22;;;;;;;77.65;58.70;;;;;;;8.34;98.19;101813.47;5013670;28;20057;-84
2020/12/18 07:54:27;;;;;;;79.28;58.78;;;;;;;8.33;98.16;101809.06;5013807;28;20053;-83
2020/12/18 07:57:33;;;;;;;77.25;57.13;;;;;;;8.38;97.85;101817.69;5009370;28;20057;-83
2020/12/18 08:00:38;;;;;;;74.88;54.78;;;;;;;8.43;97.98;101812.94;5012641;28;20427;-82
2020/12/18 08:03:51;;;;;;;69.20;52.47;;;;;;;8.52;97.89;101820.44;5012862;28;20512;-82
2020/12/18 08:06:56;;;;;;;70.90;53.88;;;;;;;8.56;97.42;101820.28;4995113;28;20394;-81
2020/12/18 08:10:03;;;;;;;67.57;52.50;;;;;;;8.67;97.18;101821.41;5012591;28;20140;-82
2020/12/18 08:13:08;;;;;;;62.47;50.30;;;;;;;8.77;96.76;101816.38;5012941;28;20045;-84
2020/12/18 08:16:15;;;;;;;68.13;52.90;;;;;;;8.80;96.56;101826.94;5013117;28;20114;-78
2020/12/18 08:19:20;;;;;;;65.93;51.85;;;;;;;8.85;96.50;101839.13;5013127;28;20061;-76
2020/12/18 08:22:27;;;;;;;67.32;51.05;;;;;;;8.93;95.90;101830.63;5013960;28;20068;-84
2020/12/18 08:25:33;;;;;;;61.40;49.42;;;;;;;9.04;95.89;101839.78;4994324;28;20057;-85
2020/12/18 08:28:39;;;;;;;62.17;48.97;;;;;;;9.08;95.13;101829.75;4999123;28;20048;-84
2020/12/18 08:31:45;;;;;;;61.00;48.15;;;;;;;9.14;94.91;101832.94;5013325;28;20519;-84
2020/12/18 08:34:56;;;;;;;58.08;48.30;;;;;;;9.15;94.24;101837.34;5013186;28;20061;-83
2020/12/18 08:38:10;;;;;;;56.22;46.97;;;;;;;9.23;94.10;101836.91;5012433;28;20052;-79
2020/12/18 08:41:14;;;;;;;57.28;47.35;;;;;;;9.33;94.14;101829.19;5013631;28;20053;-84
2020/12/18 08:44:25;;;;;;;55.85;46.85;;;;;;;9.45;93.36;101834.69;5012873;28;20053;-75
2020/12/18 08:47:32;;;;;;;52.60;45.13;;;;;;;9.57;93.01;101841.13;5013361;28;20389;-84
2020/12/18 08:50:37;;;;;;;52.00;44.78;;;;;;;9.66;92.31;101844.09;5012807;28;20207;-82
2020/12/18 08:53:42;;;;;;;55.15;46.17;;;;;;;9.72;91.67;101849.13;5012986;28;20061;-81
2020/12/18 08:56:46;;;;;;;53.55;45.42;;;;;;;9.80;91.45;101844.13;5013778;28;20401;-81
2020/12/18 08:59:58;;;;;;;55.33;44.45;;;;;;;9.86;91.05;101845.56;5010803;28;20045;-80
2020/12/18 09:03:04;;;;;;;52.00;42.90;;;;;;;10.02;90.91;101848.19;5013488;28;20397;-82
2020/12/18 09:06:11;;;;;;;49.08;41.47;;;;;;;10.15;90.62;101846.47;5012818;28;20046;-82
2020/12/18 09:09:17;;;;;;;58.78;47.90;;;;;;;10.31;90.16;101845.44;5012278;28;20401;-80
2020/12/18 09:12:22;;;;;;;61.97;52.00;;;;;;;10.42;89.63;101845.63;4989934;28;20046;-80
2020/12/18 09:15:31;;;;;;;57.03;44.63;;;;;;;10.61;88.79;101855.19;4989337;28;20042;-83
2020/12/18 09:18:46;;;;;;;47.13;41.97;;;;;;;10.73;87.98;101849.91;4988712;28;20407;-84
2020/12/18 09:22:05;;;;;;;45.80;39.33;;;;;;;10.73;86.53;101841.84;4999917;28;20045;-84
2020/12/18 09:25:11;;;;;;;;;;;;;;;10.93;86.55;101853.97;5001370;28;20397;-84
2020/12/18 09:28:24;;;;;;;39.10;34.90;;;;;;;11.42;84.53;101846.19;5009640;28;19921;-83
2020/12/18 09:31:30;;;;;;;39.88;35.50;;;;;;;11.67;82.92;101849.81;4981222;28;20038;-82
2020/12/18 09:34:36;;;;;;;38.97;34.55;;;;;;;11.64;82.93;101850.03;4992882;28;20527;-83
2020/12/18 09:37:43;;;;;;;40.47;36.08;;;;;;;11.42;83.00;101849.75;4982449;28;20050;-81
2020/12/18 09:40:49;;;;;;;38.88;34.25;;;;;;;11.19;84.26;101846.88;4978762;28;20039;-83
2020/12/18 09:43:53;;;;;;;38.00;33.88;;;;;;;11.26;84.73;101842.84;4986945;28;20428;-83
2020/12/18 09:46:58;;;;;;;38.40;34.22;;;;;;;11.30;84.72;101850.59;4972439;28;20050;-82
2020/12/18 09:50:03;;;;;;;39.65;33.92;;;;;;;11.22;84.50;101843.97;4982147;28;20062;-80
2020/12/18 09:53:08;;;;;;;37.63;32.38;;;;;;;11.11;84.22;101845.56;4981436;28;20046;-81
2020/12/18 09:56:14;;;;;;;35.22;31.50;;;;;;;10.94;84.70;101844.94;4994241;28;20598;-81
2020/12/18 09:59:19;;;;;;;40.25;32.97;;;;;;;10.71;85.28;101840.22;4992093;28;20054;-82
2020/12/18 10:02:24;;;;;;;37.28;31.95;;;;;;;10.61;86.19;101844.47;4994224;28;20054;-76
2020/12/18 10:05:29;;;;;;;39.33;34.13;;;;;;;10.51;86.75;101837.94;4993758;28;20046;-84
2020/12/18 10:08:33;;;;;;;46.10;38.05;;;;;;;10.28;87.47;101842.09;4994608;28;20086;-83
2020/12/18 10:11:38;;;;;;;45.85;40.88;;;;;;;10.20;87.85;101836.31;4993756;28;20046;-83
2020/12/18 10:14:43;;;;;;;44.13;39.42;;;;;;;10.23;87.78;101833.47;4993863;28;20062;-84
2020/12/18 10:17:48;;;;;;;45.55;38.97;;;;;;;10.26;87.83;101842.19;5007614;28;20057;-80
2020/12/18 10:20:52;;;;;;;52.60;46.85;;;;;;;10.12;88.03;101830.59;4995527;28;20145;-82
2020/12/18 10:23:56;;;;;;;55.70;47.75;;;;;;;10.02;87.96;101827.59;5000585;28;20053;-80
2020/12/18 10:27:01;;;;;;;55.15;48.60;;;;;;;9.97;88.06;101824.34;5014533;28;20046;-82
2020/12/18 10:30:07;;;;;;;59.58;47.72;;;;;;;10.04;87.97;101827.50;5014340;28;20060;-83
2020/12/18 10:33:11;;;;;;;56.60;48.63;;;;;;;9.96;88.07;101819.91;4995621;28;20481;-81
2020/12/18 10:38:42;;;;;;;62.78;53.70;;;;;;;10.16;88.21;101826.75;4998397;28;20041;-82
2020/12/18 10:41:46;;;;;;;61.13;53.08;;;;;;;10.14;88.63;101823.31;5014788;28;20041;-84
2020/12/18 10:44:50;;;;;;;61.35;54.72;;;;;;;10.23;88.18;101815.53;5014590;28;20050;-78
2020/12/18 10:47:55;;;;;;;63.03;55.75;;;;;;;10.36;88.08;101819.19;5014588;28;20046;-80
2020/12/18 10:51:00;;;;;;;71.03;60.45;;;;;;;10.28;87.72;101820.63;4994682;28;20046;-79
2020/12/18 10:54:05;;;;;;;68.65;61.08;;;;;;;10.32;87.95;101820.31;5008596;28;20065;-80
2020/12/18 10:57:10;;;;;;;71.25;63.63;;;;;;;10.29;87.61;101812.50;5014991;28;20385;-81
2020/12/18 11:00:14;;;;;;;70.95;61.83;;;;;;;10.25;87.40;101810.06;5011386;28;20049;-84
2020/12/18 11:03:19;;;;;;;73.32;65.18;;;;;;;10.21;87.85;101814.78;5014547;28;20046;-81
2020/12/18 11:06:23;;;;;;;77.05;67.07;;;;;;;10.13;88.52;101816.22;4993183;28;20496;-83
2020/12/18 11:09:27;;;;;;;78.43;67.55;;;;;;;10.01;88.33;101819.63;5005080;28;20046;-82
2020/12/18 11:12:32;;;;;;;75.70;66.53;;;;;;;10.01;88.84;101814.25;5014139;28;20046;-83
2020/12/18 11:15:37;;;;;;;78.10;69.35;;;;;;;9.94;89.07;101804.88;5013008;28;20046;-82
2020/12/18 11:18:41;;;;;;;87.75;71.75;;;;;;;9.92;89.16;101806.81;5013753;28;20053;-80
2020/12/18 11:21:48;;;;;;;84.75;72.38;;;;;;;9.80;89.57;101798.53;5014273;28;20053;-82
2020/12/18 11:24:52;;;;;;;90.50;76.82;;;;;;;9.65;89.77;101798.63;5001998;28;20053;-81
2020/12/18 11:27:57;;;;;;;92.65;75.18;;;;;;;9.75;90.89;101805.16;5013991;28;20057;-75
2020/12/18 11:31:03;;;;;;;89.07;73.80;;;;;;;9.87;90.87;101808.91;5014081;28;20124;-82
2020/12/18 11:34:08;;;;;;;98.80;75.05;;;;;;;9.92;90.28;101788.03;5013804;28;20069;-83
2020/12/18 11:37:13;;;;;;;91.05;75.55;;;;;;;10.07;90.51;101796.00;5014082;28;20057;-82
2020/12/18 11:40:17;;;;;;;87.45;72.78;;;;;;;10.20;89.21;101796.94;5012933;28;20045;-83
2020/12/18 11:43:23;;;;;;;83.90;71.50;;;;;;;10.42;88.94;101801.81;5014446;28;20038;-79
2020/12/18 11:46:28;;;;;;;83.60;68.20;;;;;;;10.65;87.79;101798.50;5013165;28;20440;-79
2020/12/18 11:49:32;;;;;;;79.75;68.07;;;;;;;10.55;87.14;101785.78;5013636;28;20049;-80
2020/12/18 11:52:37;;;;;;;76.97;67.65;;;;;;;10.56;86.50;101785.69;5013083;28;20473;-80
2020/12/18 11:55:41;;;;;;;78.22;68.72;;;;;;;10.49;86.51;101789.75;5013422;28;20045;-80
2020/12/18 11:58:45;;;;;;;77.32;67.35;;;;;;;10.36;86.36;101781.59;5011525;28;20053;-80
2020/12/18 12:01:50;;;;;;;80.82;71.93;;;;;;;10.29;87.07;101798.19;5013490;28;20401;-80
2020/12/18 12:04:55;;;;;;;81.72;69.55;;;;;;;10.23;87.19;101788.72;5012560;28;20042;-81
2020/12/18 12:08:00;;;;;;;76.35;66.88;;;;;;;10.20;87.87;101783.53;5013079;28;20400;-80
2020/12/18 12:11:04;;;;;;;76.95;68.63;;;;;;;10.14;87.84;101783.94;5013706;28;20050;-80
2020/12/18 12:14:09;;;;;;;80.07;70.40;;;;;;;10.13;88.42;101784.88;5012933;28;20419;-79
2020/12/18 12:17:13;;;;;;;79.90;69.85;;;;;;;10.06;88.54;101777.28;5013304;28;20049;-79
2020/12/18 12:20:18;;;;;;;81.60;69.03;;;;;;;10.00;89.15;101777.69;5012716;28;20046;-78
2020/12/18 12:23:22;;;;;;;80.18;68.60;;;;;;;10.02;88.94;101779.31;5012074;28;20050;-80
2020/12/18 12:26:27;;;;;;;77.88;66.93;;;;;;;10.06;89.16;101775.47;5012559;28;20041;-80
2020/12/18 12:29:32;;;;;;;75.90;64.75;;;;;;;10.16;88.41;101765.91;5012324;28;20050;-81
2020/12/18 12:32:36;;;;;;;72.60;62.75;;;;;;;10.21;87.76;101761.13;5012921;28;20038;-80
2020/12/18 12:35:41;;;;;;;72.43;61.33;;;;;;;10.33;87.25;101759.47;5012778;28;20489;-80
2020/12/18 12:38:46;;;;;;;70.63;61.33;;;;;;;10.52;86.92;101754.63;5012441;28;20042;-80
2020/12/18 12:41:51;;;;;;;69.40;58.95;;;;;;;10.57;85.57;101736.38;5011908;28;20046;-79
2020/12/18 12:44:56;;;;;;;65.63;57.95;;;;;;;10.78;85.18;101745.72;5012662;28;20041;-78
2020/12/18 12:48:00;;;;;;;69.90;58.65;;;;;;;10.79;85.01;101741.22;5000384;28;20488;-78
2020/12/18 12:51:04;;;;;;;64.05;55.38;;;;;;;10.71;84.86;101741.72;5012535;28;20038;-78
2020/12/18 12:54:09;;;;;;;69.65;58.00;;;;;;;10.62;85.38;101739.63;4995888;28;20046;-80
2020/12/18 12:57:13;;;;;;;74.93;60.00;;;;;;;10.49;85.49;101728.00;5011659;28;20046;-76
2020/12/18 13:00:18;;;;;;;73.05;59.97;;;;;;;10.58;85.09;101738.13;5010169;28;20050;-78
2020/12/18 13:03:22;;;;;;;71.72;60.28;;;;;;;10.68;84.96;101738.38;5012667;28;20392;-78
2020/12/18 13:06:27;;;;;;;65.80;58.58;;;;;;;10.81;84.58;101733.91;5012921;28;20042;-79
2020/12/18 13:09:31;;;;;;;68.15;59.60;;;;;;;10.91;84.33;101729.66;5012237;28;20053;-79
2020/12/18 13:12:35;;;;;;;73.85;58.78;;;;;;;10.98;83.99;101734.50;5012498;28;20373;-79
2020/12/18 13:15:40;;;;;;;65.25;56.63;;;;;;;10.97;83.87;101730.09;5012657;28;20046;-77
2020/12/18 13:18:44;;;;;;;68.95;59.45;;;;;;;10.89;83.57;101727.03;5016212;28;20125;-77
2020/12/18 13:21:48;;;;;;;64.93;57.63;;;;;;;10.86;83.71;101727.25;4999917;28;20120;-78
2020/12/18 13:24:52;;;;;;;66.18;59.03;;;;;;;10.87;83.29;101734.34;5015924;28;20050;-83
2020/12/18 13:27:57;;;;;;;71.03;59.22;;;;;;;10.88;83.54;101724.47;5015988;28;20062;-78
2020/12/18 13:31:02;;;;;;;68.78;58.38;;;;;;;10.82;83.64;101727.56;5015859;28;20042;-80
2020/12/18 13:34:06;;;;;;;72.15;57.90;;;;;;;10.79;83.83;101723.25;5015721;28;20473;-81
2020/12/18 13:37:11;;;;;;;64.45;56.83;;;;;;;10.85;83.50;101717.47;5016061;28;20042;-76
2020/12/18 13:40:15;;;;;;;63.95;55.67;;;;;;;10.85;83.66;101720.16;5015641;28;20489;-76
2020/12/18 13:43:20;;;;;;;64.40;54.65;;;;;;;10.77;83.52;101713.56;5015580;28;20053;-76
2020/12/18 13:46:26;;;;;;;61.17;54.55;;;;;;;10.77;83.32;101714.44;5016137;28;20057;-76
2020/12/18 13:49:30;;;;;;;63.45;56.55;;;;;;;10.79;83.43;101717.88;5015433;28;20049;-77
2020/12/18 13:52:34;;;;;;;61.22;54.50;;;;;;;10.77;83.75;101710.88;5015499;28;20046;-79
2020/12/18 13:55:40;;;;;;;62.90;55.70;;;;;;;10.76;83.83;101714.56;5015662;28;20049;-77
2020/12/18 13:58:44;;;;;;;64.60;56.33;;;;;;;10.72;83.67;101713.88;5015906;28;20045;-78
2020/12/18 14:01:49;;;;;;;60.35;53.28;;;;;;;10.67;84.30;101717.84;5006623;28;20058;-78
2020/12/18 14:04:53;;;;;;;63.45;56.55;;;;;;;10.63;84.05;101717.19;5004104;28;20050;-76
2020/12/18 14:07:58;;;;;;;62.78;55.33;;;;;;;10.59;84.09;101721.03;5015710;28;20405;-78
2020/12/18 14:11:02;;;;;;;60.53;53.83;;;;;;;10.61;84.68;101715.56;5015344;28;20393;-78
2020/12/18 14:14:06;;;;;;;61.28;53.75;;;;;;;10.60;84.19;101717.41;5015348;28;20046;-79
2020/12/18 14:17:11;;;;;;;60.53;53.80;;;;;;;10.58;84.67;101710.41;5015579;28;20046;-79
2020/12/18 14:20:15;;;;;;;59.83;51.03;;;;;;;10.59;83.63;101723.72;5014705;28;20049;-79
2020/12/18 14:23:20;;;;;;;58.85;52.42;;;;;;;10.50;83.65;101718.97;5014309;28;20041;-77
2020/12/18 14:26:24;;;;;;;57.22;50.60;;;;;;;10.49;84.06;101728.00;5015778;28;20041;-79
2020/12/18 14:29:28;;;;;;;63.63;53.05;;;;;;;10.43;83.94;101718.50;5014385;28;20038;-77